createdAt,value
2023-05-08T00:00:53.441Z,965.34
2023-05-08T00:01:53.412Z,965.33
2023-05-08T00:02:53.454Z,965.32
2023-05-08T00:03:53.716Z,965.31
2023-05-08T00:04:53.485Z,965.31
2023-05-08T00:05:53.375Z,965.30
2023-05-08T00:06:53.374Z,965.29
2023-05-08T00:07:53.370Z,965.28
2023-05-08T00:08:53.350Z,965.28
2023-05-08T00:09:53.355Z,965.27
2023-05-08T00:10:53.332Z,965.27
2023-05-08T00:11:53.316Z,965.26
2023-05-08T00:12:53.329Z,965.26
2023-05-08T00:13:53.292Z,965.26
2023-05-08T00:14:53.303Z,965.26
2023-05-08T00:15:53.277Z,965.26
2023-05-08T00:16:53.294Z,965.27
2023-05-08T00:17:53.291Z,965.27
2023-05-08T00:18:53.271Z,965.28
2023-05-08T00:19:53.270Z,965.28
2023-05-08T00:20:53.269Z,965.29
2023-05-08T00:21:53.221Z,965.31
2023-05-08T00:22:53.200Z,965.32
2023-05-08T00:23:53.219Z,965.33
2023-05-08T00:24:53.187Z,965.34
2023-05-08T00:25:53.177Z,965.34
2023-05-08T00:26:53.218Z,965.34
2023-05-08T00:27:53.146Z,965.34
2023-05-08T00:28:53.142Z,965.35
2023-05-08T00:29:53.128Z,965.35
2023-05-08T00:30:53.119Z,965.35
2023-05-08T00:31:53.147Z,965.35
2023-05-08T00:32:53.251Z,965.35
2023-05-08T00:33:53.088Z,965.36
2023-05-08T00:34:53.068Z,965.36
2023-05-08T00:35:53.084Z,965.36
2023-05-08T00:36:53.054Z,965.37
2023-05-08T00:37:53.045Z,965.37
2023-05-08T00:38:53.026Z,965.38
2023-05-08T00:39:53.030Z,965.38
2023-05-08T00:40:53.001Z,965.38
2023-05-08T00:41:53.020Z,965.38
2023-05-08T00:42:53.006Z,965.38
2023-05-08T00:43:52.987Z,965.38
2023-05-08T00:44:52.988Z,965.39
2023-05-08T00:45:52.992Z,965.39
2023-05-08T00:46:53.014Z,965.39
2023-05-08T00:47:53.598Z,965.40
2023-05-08T00:48:52.933Z,965.40
2023-05-08T00:49:52.911Z,965.40
2023-05-08T00:50:52.922Z,965.41
2023-05-08T00:51:52.909Z,965.41
2023-05-08T00:52:52.907Z,965.42
2023-05-08T00:53:52.869Z,965.43
2023-05-08T00:54:52.873Z,965.43
2023-05-08T00:55:52.886Z,965.44
2023-05-08T00:56:52.860Z,965.45
2023-05-08T00:57:52.853Z,965.46
2023-05-08T00:58:52.829Z,965.47
2023-05-08T00:59:52.854Z,965.48
2023-05-08T01:00:52.831Z,965.49
2023-05-08T01:01:52.933Z,965.50
2023-05-08T01:02:52.831Z,965.50
2023-05-08T01:03:52.913Z,965.51
2023-05-08T01:04:52.788Z,965.51
2023-05-08T01:05:52.784Z,965.51
2023-05-08T01:06:52.761Z,965.51
2023-05-08T01:07:52.737Z,965.51
2023-05-08T01:08:52.730Z,965.52
2023-05-08T01:09:52.725Z,965.52
2023-05-08T01:10:52.718Z,965.52
2023-05-08T01:11:52.706Z,965.52
2023-05-08T01:12:52.777Z,965.52
2023-05-08T01:13:52.672Z,965.51
2023-05-08T01:14:52.696Z,965.52
2023-05-08T01:15:52.675Z,965.51
2023-05-08T01:16:52.663Z,965.51
2023-05-08T01:17:52.686Z,965.51
2023-05-08T01:18:52.623Z,965.51
2023-05-08T01:19:52.627Z,965.51
2023-05-08T01:20:52.599Z,965.51
2023-05-08T01:21:52.595Z,965.51
2023-05-08T01:22:52.603Z,965.50
2023-05-08T01:23:52.621Z,965.49
2023-05-08T01:24:52.632Z,965.49
2023-05-08T01:25:52.563Z,965.49
2023-05-08T01:26:52.553Z,965.49
2023-05-08T01:27:52.534Z,965.49
2023-05-08T01:28:52.540Z,965.49
2023-05-08T01:29:52.504Z,965.49
2023-05-08T01:30:52.550Z,965.49
2023-05-08T01:31:52.483Z,965.49
2023-05-08T01:32:52.522Z,965.50
2023-05-08T01:33:52.528Z,965.50
2023-05-08T01:34:52.467Z,965.50
2023-05-08T01:35:52.445Z,965.51
2023-05-08T01:36:52.432Z,965.51
2023-05-08T01:37:52.446Z,965.51
2023-05-08T01:38:52.448Z,965.51
2023-05-08T01:39:52.411Z,965.52
2023-05-08T01:40:52.405Z,965.52
2023-05-08T01:41:52.385Z,965.52
2023-05-08T01:42:52.415Z,965.53
2023-05-08T01:43:52.374Z,965.53
2023-05-08T01:44:52.373Z,965.54
2023-05-08T01:45:52.332Z,965.55
2023-05-08T01:46:52.371Z,965.55
2023-05-08T01:47:52.397Z,965.55
2023-05-08T01:48:52.309Z,965.56
2023-05-08T01:49:52.301Z,965.56
2023-05-08T01:50:52.306Z,965.56
2023-05-08T01:51:52.289Z,965.56
2023-05-08T01:52:52.299Z,965.56
2023-05-08T01:53:52.316Z,965.57
2023-05-08T01:54:52.318Z,965.56
2023-05-08T01:55:52.287Z,965.57
2023-05-08T01:56:52.310Z,965.57
2023-05-08T01:57:52.209Z,965.58
2023-05-08T01:58:52.228Z,965.58
2023-05-08T01:59:52.206Z,965.59
2023-05-08T02:00:52.221Z,965.59
2023-05-08T02:01:52.211Z,965.60
2023-05-08T02:02:52.319Z,965.60
2023-05-08T02:03:52.230Z,965.61
2023-05-08T02:04:52.153Z,965.61
2023-05-08T02:05:52.206Z,965.62
2023-05-08T02:06:52.151Z,965.62
2023-05-08T02:07:52.120Z,965.62
2023-05-08T02:08:52.134Z,965.62
2023-05-08T02:09:52.117Z,965.62
2023-05-08T02:10:52.108Z,965.62
2023-05-08T02:11:52.077Z,965.62
2023-05-08T02:12:52.093Z,965.62
2023-05-08T02:13:52.054Z,965.61
2023-05-08T02:14:52.052Z,965.61
2023-05-08T02:15:52.056Z,965.60
2023-05-08T02:16:52.054Z,965.61
2023-05-08T02:17:52.047Z,965.61
2023-05-08T02:18:52.010Z,965.61
2023-05-08T02:19:52.007Z,965.61
2023-05-08T02:20:52.001Z,965.60
2023-05-08T02:21:51.996Z,965.60
2023-05-08T02:22:51.962Z,965.60
2023-05-08T02:23:51.945Z,965.60
2023-05-08T02:24:51.965Z,965.60
2023-05-08T02:25:51.922Z,965.60
2023-05-08T02:26:51.920Z,965.60
2023-05-08T02:27:51.920Z,965.61
2023-05-08T02:28:51.897Z,965.61
2023-05-08T02:29:51.912Z,965.61
2023-05-08T02:30:51.869Z,965.61
2023-05-08T02:31:51.910Z,965.62
2023-05-08T02:32:51.871Z,965.62
2023-05-08T02:33:51.867Z,965.63
2023-05-08T02:35:02.535Z,965.64
2023-05-08T02:35:51.825Z,965.65
2023-05-08T02:36:51.831Z,965.66
2023-05-08T02:37:51.815Z,965.67
2023-05-08T02:38:51.830Z,965.68
2023-05-08T02:39:51.811Z,965.68
2023-05-08T02:40:51.777Z,965.69
2023-05-08T02:41:51.772Z,965.69
2023-05-08T02:42:51.768Z,965.69
2023-05-08T02:43:51.779Z,965.69
2023-05-08T02:44:51.736Z,965.69
2023-05-08T02:45:51.751Z,965.68
2023-05-08T02:46:51.728Z,965.67
2023-05-08T02:47:51.764Z,965.66
2023-05-08T02:48:51.706Z,965.65
2023-05-08T02:49:51.677Z,965.64
2023-05-08T02:50:51.671Z,965.64
2023-05-08T02:51:51.659Z,965.63
2023-05-08T02:52:51.658Z,965.63
2023-05-08T02:53:51.649Z,965.63
2023-05-08T02:54:51.646Z,965.64
2023-05-08T02:55:51.629Z,965.64
2023-05-08T02:56:51.612Z,965.64
2023-05-08T02:57:51.604Z,965.64
2023-05-08T02:58:51.589Z,965.64
2023-05-08T02:59:51.576Z,965.63
2023-05-08T03:00:51.585Z,965.63
2023-05-08T03:01:51.644Z,965.62
2023-05-08T03:02:51.585Z,965.62
2023-05-08T03:03:51.669Z,965.61
2023-05-08T03:04:51.619Z,965.60
2023-05-08T03:05:51.509Z,965.59
2023-05-08T03:06:51.534Z,965.59
2023-05-08T03:07:51.480Z,965.59
2023-05-08T03:08:51.493Z,965.59
2023-05-08T03:09:51.473Z,965.59
2023-05-08T03:10:51.462Z,965.59
2023-05-08T03:11:51.471Z,965.59
2023-05-08T03:12:51.455Z,965.58
2023-05-08T03:13:51.443Z,965.58
2023-05-08T03:14:51.438Z,965.57
2023-05-08T03:15:51.435Z,965.57
2023-05-08T03:16:51.417Z,965.57
2023-05-08T03:17:51.420Z,965.57
2023-05-08T03:18:51.378Z,965.57
2023-05-08T03:19:51.370Z,965.57
2023-05-08T03:20:51.379Z,965.57
2023-05-08T03:21:51.348Z,965.57
2023-05-08T03:22:51.350Z,965.57
2023-05-08T03:23:51.312Z,965.57
2023-05-08T03:24:51.334Z,965.57
2023-05-08T03:25:51.313Z,965.58
2023-05-08T03:26:51.312Z,965.59
2023-05-08T03:27:51.293Z,965.60
2023-05-08T03:28:51.268Z,965.60
2023-05-08T03:29:51.224Z,965.61
2023-05-08T03:30:51.222Z,965.61
2023-05-08T03:31:51.206Z,965.62
2023-05-08T03:32:51.272Z,965.63
2023-05-08T03:33:51.155Z,965.63
2023-05-08T03:34:51.173Z,965.63
2023-05-08T03:35:51.132Z,965.62
2023-05-08T03:36:51.141Z,965.62
2023-05-08T03:37:51.123Z,965.63
2023-05-08T03:38:51.138Z,965.63
2023-05-08T03:39:51.117Z,965.62
2023-05-08T03:40:51.110Z,965.62
2023-05-08T03:41:51.089Z,965.62
2023-05-08T03:42:51.092Z,965.62
2023-05-08T03:43:51.075Z,965.63
2023-05-08T03:44:51.062Z,965.63
2023-05-08T03:45:51.044Z,965.63
2023-05-08T03:46:51.225Z,965.62
2023-05-08T03:47:51.059Z,965.62
2023-05-08T03:48:51.028Z,965.61
2023-05-08T03:49:51.007Z,965.61
2023-05-08T03:50:50.997Z,965.60
2023-05-08T03:51:50.998Z,965.60
2023-05-08T03:52:50.982Z,965.61
2023-05-08T03:53:50.991Z,965.61
2023-05-08T03:54:50.954Z,965.61
2023-05-08T03:55:50.941Z,965.62
2023-05-08T03:56:50.936Z,965.61
2023-05-08T03:57:50.948Z,965.61
2023-05-08T03:58:50.908Z,965.61
2023-05-08T03:59:50.918Z,965.61
2023-05-08T04:00:50.907Z,965.61
2023-05-08T04:01:50.925Z,965.61
2023-05-08T04:02:50.963Z,965.62
2023-05-08T04:03:50.944Z,965.63
2023-05-08T04:04:50.856Z,965.64
2023-05-08T04:05:50.938Z,965.65
2023-05-08T04:06:51.170Z,965.66
2023-05-08T04:07:50.871Z,965.67
2023-05-08T04:08:50.814Z,965.68
2023-05-08T04:09:50.796Z,965.69
2023-05-08T04:10:50.796Z,965.70
2023-05-08T04:11:50.787Z,965.70
2023-05-08T04:12:50.795Z,965.71
2023-05-08T04:13:50.761Z,965.72
2023-05-08T04:14:50.758Z,965.74
2023-05-08T04:15:50.742Z,965.75
2023-05-08T04:16:50.781Z,965.77
2023-05-08T04:17:50.758Z,965.80
2023-05-08T04:18:50.709Z,965.82
2023-05-08T04:19:50.713Z,965.84
2023-05-08T04:20:50.694Z,965.86
2023-05-08T04:21:50.797Z,965.87
2023-05-08T04:22:50.666Z,965.88
2023-05-08T04:23:50.687Z,965.88
2023-05-08T04:24:50.649Z,965.88
2023-05-08T04:25:50.672Z,965.87
2023-05-08T04:26:50.631Z,965.87
2023-05-08T04:27:50.638Z,965.86
2023-05-08T04:28:50.631Z,965.87
2023-05-08T04:29:50.632Z,965.87
2023-05-08T04:30:50.610Z,965.88
2023-05-08T04:31:50.646Z,965.89
2023-05-08T04:32:50.636Z,965.90
2023-05-08T04:33:50.576Z,965.91
2023-05-08T04:34:50.577Z,965.93
2023-05-08T04:35:50.531Z,965.93
2023-05-08T04:36:50.535Z,965.94
2023-05-08T04:37:50.533Z,965.94
2023-05-08T04:38:50.502Z,965.94
2023-05-08T04:39:50.514Z,965.94
2023-05-08T04:40:50.495Z,965.95
2023-05-08T04:41:50.494Z,965.95
2023-05-08T04:42:50.475Z,965.96
2023-05-08T04:43:50.490Z,965.96
2023-05-08T04:44:50.470Z,965.97
2023-05-08T04:45:50.455Z,965.97
2023-05-08T04:46:50.421Z,965.98
2023-05-08T04:47:50.506Z,965.97
2023-05-08T04:48:50.431Z,965.98
2023-05-08T04:49:50.399Z,965.98
2023-05-08T04:50:50.386Z,965.98
2023-05-08T04:51:50.394Z,965.98
2023-05-08T04:52:50.385Z,965.98
2023-05-08T04:53:50.378Z,965.99
2023-05-08T04:54:50.341Z,966.00
2023-05-08T04:55:50.325Z,966.01
2023-05-08T04:56:50.328Z,966.01
2023-05-08T04:57:50.333Z,966.02
2023-05-08T04:58:50.329Z,966.02
2023-05-08T04:59:50.310Z,966.03
2023-05-08T05:00:50.276Z,966.03
2023-05-08T05:01:50.280Z,966.03
2023-05-08T05:02:50.308Z,966.02
2023-05-08T05:03:50.272Z,966.03
2023-05-08T05:04:50.245Z,966.04
2023-05-08T05:05:50.238Z,966.05
2023-05-08T05:06:50.238Z,966.07
2023-05-08T05:07:50.260Z,966.09
2023-05-08T05:08:50.210Z,966.10
2023-05-08T05:09:50.202Z,966.11
2023-05-08T05:10:50.177Z,966.12
2023-05-08T05:11:50.186Z,966.12
2023-05-08T05:12:50.221Z,966.13
2023-05-08T05:13:50.152Z,966.13
2023-05-08T05:14:50.122Z,966.14
2023-05-08T05:15:50.194Z,966.14
2023-05-08T05:16:50.124Z,966.15
2023-05-08T05:17:50.104Z,966.16
2023-05-08T05:18:50.082Z,966.17
2023-05-08T05:19:51.573Z,966.18
2023-05-08T05:20:50.070Z,966.19
2023-05-08T05:21:50.066Z,966.20
2023-05-08T05:22:50.060Z,966.20
2023-05-08T05:23:50.061Z,966.21
2023-05-08T05:24:50.033Z,966.21
2023-05-08T05:25:50.039Z,966.22
2023-05-08T05:26:50.010Z,966.22
2023-05-08T05:27:49.994Z,966.22
2023-05-08T05:28:49.998Z,966.22
2023-05-08T05:29:49.999Z,966.22
2023-05-08T05:30:50.001Z,966.22
2023-05-08T05:31:50.026Z,966.21
2023-05-08T05:32:50.008Z,966.22
2023-05-08T05:33:49.963Z,966.22
2023-05-08T05:34:49.975Z,966.23
2023-05-08T05:35:49.931Z,966.23
2023-05-08T05:36:49.912Z,966.23
2023-05-08T05:37:49.893Z,966.24
2023-05-08T05:38:49.900Z,966.24
2023-05-08T05:39:49.900Z,966.25
2023-05-08T05:40:49.843Z,966.25
2023-05-08T05:41:49.840Z,966.26
2023-05-08T05:42:49.838Z,966.26
2023-05-08T05:43:49.963Z,966.27
2023-05-08T05:44:49.830Z,966.28
2023-05-08T05:45:49.804Z,966.28
2023-05-08T05:46:49.783Z,966.28
2023-05-08T05:47:50.064Z,966.29
2023-05-08T05:48:49.785Z,966.28
2023-05-08T05:49:49.800Z,966.28
2023-05-08T05:50:49.764Z,966.29
2023-05-08T05:51:49.747Z,966.28
2023-05-08T05:52:49.740Z,966.28
2023-05-08T05:53:49.733Z,966.28
2023-05-08T05:54:49.718Z,966.27
2023-05-08T05:55:49.704Z,966.27
2023-05-08T05:56:49.691Z,966.28
2023-05-08T05:57:49.699Z,966.28
2023-05-08T05:58:49.705Z,966.28
2023-05-08T05:59:49.665Z,966.29
2023-05-08T06:00:49.644Z,966.30
2023-05-08T06:01:49.663Z,966.31
2023-05-08T06:02:49.868Z,966.31
2023-05-08T06:03:49.790Z,966.32
2023-05-08T06:04:49.686Z,966.32
2023-05-08T06:05:49.608Z,966.32
2023-05-08T06:06:49.580Z,966.32
2023-05-08T06:07:49.634Z,966.32
2023-05-08T06:08:49.571Z,966.32
2023-05-08T06:09:49.554Z,966.32
2023-05-08T06:10:49.564Z,966.32
2023-05-08T06:11:49.529Z,966.31
2023-05-08T06:12:49.568Z,966.32
2023-05-08T06:13:50.696Z,966.33
2023-05-08T06:14:49.517Z,966.33
2023-05-08T06:15:49.493Z,966.34
2023-05-08T06:16:49.540Z,966.34
2023-05-08T06:17:49.532Z,966.35
2023-05-08T06:18:49.473Z,966.36
2023-05-08T06:19:49.460Z,966.38
2023-05-08T06:20:49.449Z,966.39
2023-05-08T06:21:49.440Z,966.40
2023-05-08T06:22:49.438Z,966.40
2023-05-08T06:23:49.427Z,966.40
2023-05-08T06:24:49.418Z,966.42
2023-05-08T06:25:49.400Z,966.42
2023-05-08T06:26:49.396Z,966.43
2023-05-08T06:27:49.382Z,966.44
2023-05-08T06:28:49.366Z,966.44
2023-05-08T06:29:49.367Z,966.44
2023-05-08T06:30:49.437Z,966.45
2023-05-08T06:31:49.346Z,966.46
2023-05-08T06:32:49.376Z,966.46
2023-05-08T06:33:49.312Z,966.47
2023-05-08T06:34:49.283Z,966.47
2023-05-08T06:35:49.328Z,966.48
2023-05-08T06:36:49.314Z,966.48
2023-05-08T06:37:49.302Z,966.49
2023-05-08T06:38:49.265Z,966.50
2023-05-08T06:39:52.554Z,966.51
2023-05-08T06:40:49.283Z,966.52
2023-05-08T06:41:49.236Z,966.52
2023-05-08T06:42:49.223Z,966.53
2023-05-08T06:43:49.208Z,966.53
2023-05-08T06:44:49.207Z,966.53
2023-05-08T06:45:49.206Z,966.53
2023-05-08T06:46:49.209Z,966.52
2023-05-08T06:47:49.226Z,966.52
2023-05-08T06:48:49.171Z,966.51
2023-05-08T06:49:49.145Z,966.51
2023-05-08T06:50:49.150Z,966.50
2023-05-08T06:51:49.115Z,966.49
2023-05-08T06:52:49.166Z,966.48
2023-05-08T06:53:49.107Z,966.48
2023-05-08T06:54:49.105Z,966.48
2023-05-08T06:55:49.114Z,966.47
2023-05-08T06:56:49.062Z,966.47
2023-05-08T06:57:49.076Z,966.47
2023-05-08T06:58:57.087Z,966.48
2023-05-08T06:59:49.095Z,966.48
2023-05-08T07:00:49.045Z,966.49
2023-05-08T07:01:49.050Z,966.50
2023-05-08T07:02:49.023Z,966.52
2023-05-08T07:03:49.001Z,966.52
2023-05-08T07:04:49.231Z,966.53
2023-05-08T07:05:48.988Z,966.54
2023-05-08T07:06:48.969Z,966.54
2023-05-08T07:07:48.973Z,966.54
2023-05-08T07:08:48.962Z,966.54
2023-05-08T07:09:48.941Z,966.54
2023-05-08T07:10:48.974Z,966.53
2023-05-08T07:11:48.946Z,966.53
2023-05-08T07:12:48.974Z,966.53
2023-05-08T07:13:48.901Z,966.53
2023-05-08T07:14:48.867Z,966.53
2023-05-08T07:15:48.900Z,966.54
2023-05-08T07:16:48.856Z,966.54
2023-05-08T07:17:48.901Z,966.55
2023-05-08T07:18:48.828Z,966.56
2023-05-08T07:19:48.826Z,966.55
2023-05-08T07:20:48.851Z,966.55
2023-05-08T07:21:48.887Z,966.54
2023-05-08T07:22:48.838Z,966.53
2023-05-08T07:23:48.853Z,966.53
2023-05-08T07:24:48.801Z,966.52
2023-05-08T07:25:48.793Z,966.53
2023-05-08T07:26:48.784Z,966.53
2023-05-08T07:27:48.790Z,966.52
2023-05-08T07:28:48.771Z,966.52
2023-05-08T07:29:48.776Z,966.52
2023-05-08T07:30:48.770Z,966.53
2023-05-08T07:31:48.837Z,966.53
2023-05-08T07:32:48.749Z,966.53
2023-05-08T07:33:48.698Z,966.54
2023-05-08T07:34:48.715Z,966.54
2023-05-08T07:35:48.687Z,966.56
2023-05-08T07:36:48.662Z,966.55
2023-05-08T07:37:48.657Z,966.55
2023-05-08T07:38:48.625Z,966.56
2023-05-08T07:39:48.727Z,966.55
2023-05-08T07:40:48.632Z,966.57
2023-05-08T07:41:49.922Z,966.58
2023-05-08T07:42:48.592Z,966.58
2023-05-08T07:43:48.582Z,966.59
2023-05-08T07:44:54.868Z,966.59
2023-05-08T07:45:48.577Z,966.59
2023-05-08T07:46:48.621Z,966.59
2023-05-08T07:47:48.621Z,966.58
2023-05-08T07:48:48.529Z,966.59
2023-05-08T07:49:48.535Z,966.59
2023-05-08T07:50:48.505Z,966.59
2023-05-08T07:51:48.504Z,966.60
2023-05-08T07:52:50.105Z,966.60
2023-05-08T07:53:48.495Z,966.59
2023-05-08T07:54:48.489Z,966.59
2023-05-08T07:55:48.463Z,966.60
2023-05-08T07:56:48.440Z,966.60
2023-05-08T07:57:48.454Z,966.60
2023-05-08T07:58:48.503Z,966.60
2023-05-08T07:59:48.420Z,966.61
2023-05-08T08:00:48.410Z,966.60
2023-05-08T08:01:48.386Z,966.61
2023-05-08T08:02:48.537Z,966.61
2023-05-08T08:03:48.479Z,966.62
2023-05-08T08:04:48.366Z,966.63
2023-05-08T08:05:48.351Z,966.63
2023-05-08T08:06:48.349Z,966.64
2023-05-08T08:07:48.348Z,966.63
2023-05-08T08:08:48.360Z,966.65
2023-05-08T08:09:48.301Z,966.63
2023-05-08T08:10:48.298Z,966.62
2023-05-08T08:11:48.303Z,966.62
2023-05-08T08:12:48.368Z,966.62
2023-05-08T08:13:48.258Z,966.62
2023-05-08T08:14:48.269Z,966.62
2023-05-08T08:15:48.246Z,966.62
2023-05-08T08:16:48.317Z,966.64
2023-05-08T08:17:48.261Z,966.64
2023-05-08T08:18:48.213Z,966.64
2023-05-08T08:19:48.219Z,966.66
2023-05-08T08:20:48.200Z,966.67
2023-05-08T08:21:48.189Z,966.67
2023-05-08T08:22:48.213Z,966.68
2023-05-08T08:23:48.170Z,966.71
2023-05-08T08:24:48.157Z,966.71
2023-05-08T08:25:48.152Z,966.71
2023-05-08T08:26:48.160Z,966.73
2023-05-08T08:27:48.132Z,966.72
2023-05-08T08:28:48.109Z,966.73
2023-05-08T08:29:48.099Z,966.74
2023-05-08T08:30:48.156Z,966.77
2023-05-08T08:31:48.123Z,966.76
2023-05-08T08:32:48.107Z,966.76
2023-05-08T08:33:48.063Z,966.79
2023-05-08T08:34:48.054Z,966.76
2023-05-08T08:35:48.049Z,966.75
2023-05-08T08:36:48.032Z,966.74
2023-05-08T08:37:48.009Z,966.74
2023-05-08T08:38:48.050Z,966.73
2023-05-08T08:39:48.038Z,966.73
2023-05-08T08:40:48.053Z,966.72
2023-05-08T08:41:47.979Z,966.74
2023-05-08T08:42:47.981Z,966.73
2023-05-08T08:43:47.982Z,966.74
2023-05-08T08:44:47.975Z,966.74
2023-05-08T08:45:47.957Z,966.75
2023-05-08T08:46:48.003Z,966.73
2023-05-08T08:47:48.061Z,966.73
2023-05-08T08:48:47.934Z,966.73
2023-05-08T08:49:47.912Z,966.74
2023-05-08T08:50:47.919Z,966.75
2023-05-08T08:51:47.886Z,966.75
2023-05-08T08:52:47.872Z,966.75
2023-05-08T08:53:47.876Z,966.76
2023-05-08T08:54:47.872Z,966.77
2023-05-08T08:55:47.838Z,966.77
2023-05-08T08:56:47.843Z,966.77
2023-05-08T08:57:47.829Z,966.77
2023-05-08T08:58:47.832Z,966.80
2023-05-08T08:59:47.808Z,966.80
2023-05-08T09:00:47.808Z,966.82
2023-05-08T09:01:47.807Z,966.83
2023-05-08T09:02:47.836Z,966.85
2023-05-08T09:03:49.766Z,966.85
2023-05-08T09:04:47.783Z,966.84
2023-05-08T09:05:47.760Z,966.85
2023-05-08T09:06:47.773Z,966.85
2023-05-08T09:07:47.787Z,966.84
2023-05-08T09:08:47.780Z,966.84
2023-05-08T09:09:47.750Z,966.84
2023-05-08T09:10:47.731Z,966.83
2023-05-08T09:11:47.724Z,966.83
2023-05-08T09:12:47.807Z,966.82
2023-05-08T09:13:47.697Z,966.84
2023-05-08T09:14:47.691Z,966.83
2023-05-08T09:15:47.663Z,966.83
2023-05-08T09:16:47.741Z,966.83
2023-05-08T09:17:47.716Z,966.83
2023-05-08T09:18:47.624Z,966.83
2023-05-08T09:19:47.588Z,966.84
2023-05-08T09:20:47.580Z,966.85
2023-05-08T09:21:47.588Z,966.85
2023-05-08T09:22:47.563Z,966.85
2023-05-08T09:23:47.561Z,966.84
2023-05-08T09:24:47.552Z,966.86
2023-05-08T09:25:47.532Z,966.85
2023-05-08T09:26:47.554Z,966.87
2023-05-08T09:27:47.529Z,966.86
2023-05-08T09:28:47.497Z,966.87
2023-05-08T09:29:47.535Z,966.86
2023-05-08T09:30:47.503Z,966.88
2023-05-08T09:31:47.559Z,966.88
2023-05-08T09:32:47.483Z,966.89
2023-05-08T09:33:47.436Z,966.90
2023-05-08T09:34:47.456Z,966.91
2023-05-08T09:35:47.422Z,966.91
2023-05-08T09:36:47.438Z,966.92
2023-05-08T09:37:47.555Z,966.93
2023-05-08T09:38:47.401Z,966.92
2023-05-08T09:39:47.380Z,966.92
2023-05-08T09:40:47.401Z,966.93
2023-05-08T09:41:47.375Z,966.94
2023-05-08T09:42:47.346Z,966.93
2023-05-08T09:43:47.354Z,966.94
2023-05-08T09:44:47.331Z,966.94
2023-05-08T09:45:47.372Z,966.94
2023-05-08T09:46:47.311Z,966.95
2023-05-08T09:47:47.332Z,966.95
2023-05-08T09:48:47.287Z,966.96
2023-05-08T09:49:47.313Z,966.97
2023-05-08T09:50:47.308Z,966.98
2023-05-08T09:51:47.267Z,966.99
2023-05-08T09:52:47.255Z,967.00
2023-05-08T09:53:47.271Z,967.01
2023-05-08T09:54:47.262Z,967.00
2023-05-08T09:55:47.223Z,966.99
2023-05-08T09:56:47.213Z,966.99
2023-05-08T09:57:47.180Z,966.98
2023-05-08T09:58:47.204Z,966.99
2023-05-08T09:59:47.172Z,966.98
2023-05-08T10:00:47.218Z,966.98
2023-05-08T10:01:47.188Z,966.97
2023-05-08T10:02:47.200Z,966.98
2023-05-08T10:03:47.196Z,966.98
2023-05-08T10:04:47.187Z,966.98
2023-05-08T10:05:47.129Z,966.99
2023-05-08T10:06:47.120Z,966.99
2023-05-08T10:07:47.084Z,967.01
2023-05-08T10:08:47.110Z,967.01
2023-05-08T10:09:50.716Z,967.01
2023-05-08T10:10:47.047Z,967.02
2023-05-08T10:11:47.036Z,967.03
2023-05-08T10:12:47.071Z,967.03
2023-05-08T10:13:47.037Z,967.04
2023-05-08T10:14:47.164Z,967.04
2023-05-08T10:15:46.994Z,967.05
2023-05-08T10:16:47.068Z,967.05
2023-05-08T10:17:47.008Z,967.06
2023-05-08T10:18:46.993Z,967.07
2023-05-08T10:19:46.975Z,967.08
2023-05-08T10:20:46.958Z,967.09
2023-05-08T10:21:46.954Z,967.10
2023-05-08T10:22:46.958Z,967.11
2023-05-08T10:23:46.939Z,967.12
2023-05-08T10:24:46.931Z,967.12
2023-05-08T10:25:46.899Z,967.11
2023-05-08T10:26:57.398Z,967.11
2023-05-08T10:27:46.909Z,967.11
2023-05-08T10:28:46.868Z,967.11
2023-05-08T10:29:46.863Z,967.11
2023-05-08T10:30:46.898Z,967.11
2023-05-08T10:31:46.831Z,967.10
2023-05-08T10:32:46.901Z,967.10
2023-05-08T10:33:46.822Z,967.09
2023-05-08T10:34:46.828Z,967.08
2023-05-08T10:35:46.807Z,967.07
2023-05-08T10:36:46.803Z,967.07
2023-05-08T10:37:46.778Z,967.06
2023-05-08T10:38:46.778Z,967.04
2023-05-08T10:39:46.760Z,967.04
2023-05-08T10:40:46.753Z,967.03
2023-05-08T10:41:46.752Z,967.01
2023-05-08T10:42:46.786Z,967.01
2023-05-08T10:43:46.717Z,967.00
2023-05-08T10:44:46.720Z,966.99
2023-05-08T10:45:46.711Z,966.98
2023-05-08T10:46:46.752Z,966.98
2023-05-08T10:47:48.617Z,966.96
2023-05-08T10:48:46.697Z,966.96
2023-05-08T10:49:46.671Z,966.94
2023-05-08T10:50:46.670Z,966.93
2023-05-08T10:51:46.620Z,966.93
2023-05-08T10:52:46.653Z,966.92
2023-05-08T10:53:46.618Z,966.92
2023-05-08T10:54:46.625Z,966.91
2023-05-08T10:55:46.592Z,966.90
2023-05-08T10:56:46.590Z,966.90
2023-05-08T10:57:46.571Z,966.90
2023-05-08T10:58:46.579Z,966.90
2023-05-08T10:59:46.597Z,966.89
2023-05-08T11:00:46.573Z,966.88
2023-05-08T11:01:46.570Z,966.87
2023-05-08T11:02:46.701Z,966.87
2023-05-08T11:03:46.630Z,966.87
2023-05-08T11:04:46.604Z,966.86
2023-05-08T11:05:46.534Z,966.87
2023-05-08T11:06:46.520Z,966.88
2023-05-08T11:07:46.491Z,966.87
2023-05-08T11:08:46.454Z,966.88
2023-05-08T11:09:46.464Z,966.89
2023-05-08T11:10:46.432Z,966.89
2023-05-08T11:11:46.413Z,966.89
2023-05-08T11:12:46.438Z,966.90
2023-05-08T11:13:46.427Z,966.91
2023-05-08T11:14:46.441Z,966.92
2023-05-08T11:15:46.414Z,966.91
2023-05-08T11:16:46.424Z,966.92
2023-05-08T11:17:46.384Z,966.92
2023-05-08T11:18:49.693Z,966.92
2023-05-08T11:19:46.344Z,966.91
2023-05-08T11:20:46.323Z,966.90
2023-05-08T11:21:46.320Z,966.89
2023-05-08T11:22:46.322Z,966.89
2023-05-08T11:23:46.307Z,966.88
2023-05-08T11:24:46.296Z,966.87
2023-05-08T11:25:46.303Z,966.85
2023-05-08T11:26:46.279Z,966.84
2023-05-08T11:27:46.269Z,966.82
2023-05-08T11:28:46.264Z,966.82
2023-05-08T11:29:46.223Z,966.80
2023-05-08T11:30:46.231Z,966.79
2023-05-08T11:31:46.257Z,966.78
2023-05-08T11:32:46.245Z,966.78
2023-05-08T11:33:46.184Z,966.77
2023-05-08T11:34:46.203Z,966.77
2023-05-08T11:35:46.191Z,966.76
2023-05-08T11:36:46.173Z,966.76
2023-05-08T11:37:46.182Z,966.76
2023-05-08T11:38:46.169Z,966.74
2023-05-08T11:39:46.160Z,966.74
2023-05-08T11:40:46.227Z,966.74
2023-05-08T11:41:46.161Z,966.74
2023-05-08T11:42:46.137Z,966.74
2023-05-08T11:43:46.092Z,966.73
2023-05-08T11:44:46.093Z,966.73
2023-05-08T11:45:46.084Z,966.74
2023-05-08T11:46:46.128Z,966.75
2023-05-08T11:47:46.127Z,966.75
2023-05-08T11:48:46.039Z,966.75
2023-05-08T11:49:46.047Z,966.75
2023-05-08T11:50:46.028Z,966.75
2023-05-08T11:51:46.025Z,966.74
2023-05-08T11:52:46.020Z,966.75
2023-05-08T11:53:45.997Z,966.75
2023-05-08T11:54:45.986Z,966.73
2023-05-08T11:55:45.977Z,966.73
2023-05-08T11:56:47.713Z,966.72
2023-05-08T11:57:45.956Z,966.73
2023-05-08T11:58:45.943Z,966.72
2023-05-08T11:59:45.925Z,966.74
2023-05-08T12:00:45.968Z,966.74
2023-05-08T12:01:53.578Z,966.74
2023-05-08T12:02:45.991Z,966.75
2023-05-08T12:03:45.994Z,966.75
2023-05-08T12:04:46.034Z,966.74
2023-05-08T12:05:45.875Z,966.73
2023-05-08T12:06:45.863Z,966.74
2023-05-08T12:07:45.846Z,966.74
2023-05-08T12:08:45.841Z,966.73
2023-05-08T12:09:45.832Z,966.79
2023-05-08T12:10:46.872Z,966.74
2023-05-08T12:11:45.794Z,966.74
2023-05-08T12:12:45.895Z,966.74
2023-05-08T12:13:45.923Z,966.75
2023-05-08T12:14:45.790Z,966.73
2023-05-08T12:15:45.761Z,966.73
2023-05-08T12:16:45.860Z,966.72
2023-05-08T12:17:45.773Z,966.71
2023-05-08T12:18:45.746Z,966.70
2023-05-08T12:19:45.747Z,966.70
2023-05-08T12:20:45.716Z,966.70
2023-05-08T12:21:45.744Z,966.71
2023-05-08T12:22:45.688Z,966.70
2023-05-08T12:23:45.705Z,966.71
2023-05-08T12:24:45.654Z,966.70
2023-05-08T12:25:45.674Z,966.70
2023-05-08T12:26:45.648Z,966.72
2023-05-08T12:27:45.636Z,966.72
2023-05-08T12:28:45.666Z,966.74